Cactus Peak, Santa Catalina Island Weather observations

Data are for 10 minute period ending at time listed.
 Day   Time   Solar   Ave.   Ave.  Ave.  Vector    Max.   Stn.    Total
  of    of     Rad.   Air    Rel.  Wind   Wind     Wind   Baro.  Precip.
Year   Day            Temp.  Hum.  Speed  Dir.     Gust   Pres.         
2026   (PST)   W/m2    F      %     mph   deg.      mph    mb.     in.  
------------------------------------------------------------------------
 125    2:10    0.0    50   99.9    11    325.3    14.9    999.0   0.00  
 125    2:20    0.0    50   99.9    12    328.5    14.9    999.0   0.00  
 125    2:30    0.0    50   99.9    12    326.5    16.1    999.0   0.00  
 125    2:40    0.0    50   99.9    12    330.2    15.5    999.0   0.00  
 125    2:50    0.0    50   99.9    11    325.3    18.5    999.0   0.00  
 125    3:00    0.0    50   99.9    11    316.4    16.7    999.0   0.00  
 125    3:10    0.0    50   99.9    11    310.2    15.5    999.0   0.00  
 125    3:20    0.0    50   99.9    13    311.5    18.5    999.0   0.00  
 125    3:30    0.0    50   99.9    11    309.8    17.3    999.0   0.00  
 125    3:40    0.0    50   97.4    13    305.3    20.9    999.0   0.00  
 125    3:50    0.0    50   87.3    13    311.5    18.5    999.0   0.00  
 125    4:00    0.0    50   89.3    12    308.0    16.7    999.0   0.00  
 125    4:10    0.0    50   94.4    11    299.8    19.1    999.0   0.00  
 125    4:20    0.0    50   94.1    12    297.8    17.9    999.0   0.00  
 125    4:30    0.0    50   98.2    11    308.8    16.7    999.0   0.00  
 125    4:40    0.0    50   92.0    12    312.0    17.9    999.0   0.00  
 125    4:50    0.0    50   86.8    10    317.6    16.7    999.0   0.00  
 125    5:00    2.0    50   85.8    12    316.6    19.1    999.0   0.00  
 125    5:10    5.0    50   85.0    11    321.7    16.7    999.0   0.00  
 125    5:20   12.0    50   86.0    11    316.0    16.1    999.0   0.00  
 125    5:30   29.0    50   86.4    11    316.8    16.7    999.0   0.00  
 125    5:40   35.0    50   86.1    11    314.0    17.9    999.0   0.00  
 125    5:50   42.0    51   86.4    11    311.8    16.1    999.0   0.00  
 125    6:00   63.0    51   86.8    10    322.9    14.9    999.0   0.00  
 125    6:10   65.0    51   84.9    12    312.0    19.7    999.0   0.00  
 125    6:20   91.0    51   84.2    11    313.4    16.7    999.0   0.00  
 125    6:30  114.0    51   84.9    10    317.8    16.7    999.0   0.00  
 125    6:40  198.0    52   84.5    10    316.1    15.5    999.0   0.00  
 125    6:50  297.0    53   81.4    10    330.3    15.5    999.0   0.00  
 125    7:00  316.0    54   79.7    11    334.5    16.7    999.0   0.00  
 125    7:10  222.0    53   78.7    12    339.6    18.5    999.0   0.00  
 125    7:20  175.0    53   78.3    12    338.6    17.3    999.0   0.00  
 125    7:30  276.0    53   81.1     9    334.1    16.1    999.0   0.00  
 125    7:40  405.0    54   77.7    10    336.3    14.9    999.0   0.00  
 125    7:50  370.0    55   75.5     8    321.1    13.1    999.0   0.00  
 125    8:00  417.0    55   73.0     9    306.3    15.5    999.0   0.00  
 125    8:10  396.0    54   76.3    10    302.9    17.3    999.0   0.00  
 125    8:20  421.0    54   75.6    12    307.9    17.9    999.0   0.00  
 125    8:30  408.0    54   75.6    10    289.6    16.7    999.0   0.00  
 125    8:40  388.0    54   73.9    10    286.2    14.9    999.0   0.00  
 125    8:50  517.0    55   72.7    10    289.7    17.3    999.0   0.00  
 125    9:00  524.0    55   73.8    10    283.5    17.3    999.0   0.00  
 125    9:10  635.0    55   72.6    10    272.4    17.3    999.0   0.00  
 125    9:20  539.0    56   71.3     9    293.1    15.5    999.0   0.00  
 125    9:30  479.0    55   71.5    12    299.7    17.9    999.0   0.00  
 125    9:40  449.0    55   73.3    10    276.9    17.3    999.0   0.00  
 125    9:50  660.0    56   72.3    10    286.2    16.7    999.0   0.00  
 125   10:00  539.0    56   71.5    12    292.9    19.1    999.0   0.00  
 125   10:10  634.0    56   70.8    12    306.1    21.5    999.0   0.00  
 125   10:20  713.0    56   70.1    12    293.1    20.3    999.0   0.00  
 125   10:30  673.0    56   70.0    13    302.5    19.7    999.0   0.00  
 125   10:40  763.0    56   71.8    10    291.8    17.3    999.0   0.00  
 125   10:50  664.0    56   71.9    11    298.2    18.5    999.0   0.00  
 125   11:00  780.0    57   69.3    10    304.7    17.3    999.0   0.00  
 125   11:10  785.0    57   68.4    11    315.3    19.1    999.0   0.00  
 125   11:20  892.0    57   68.0    10    294.7    18.5    999.0   0.00  
 125   11:30  732.0    57   70.6    10    255.2    18.5    999.0   0.00  
 125   11:40  858.0    57   69.3    10    257.8    18.5    999.0   0.00  
 125   11:50  767.0    57   71.1    10    269.9    17.3    999.0   0.00  
 125   12:00  720.0    57   71.5    12    253.6    19.1    999.0   0.00  
 125   12:10  776.0    56   72.6    13    251.6    19.7    999.0   0.00  
 125   12:20  755.0    56   71.6    14    250.9    19.1    999.0   0.00  
 125   12:30  672.0    56   71.6    13    254.4    19.7    999.0   0.00  
 125   12:40  718.0    56   72.3    12    246.7    18.5    999.0   0.00  
 125   12:50  810.0    56   71.2    13    248.5    18.5    999.0   0.00  
 125   13:00  718.0    56   71.6    13    254.7    20.9    999.0   0.00  
 125   13:10  663.0    56   71.6    13    249.0    23.3    999.0   0.00  
 125   13:20  908.0    57   70.1    13    253.3    18.5    999.0   0.00  
 125   13:30  683.0    57   69.6    12    251.8    18.5    999.0   0.00  
 125   13:40  748.0    57   68.7    12    246.1    19.7    999.0   0.00  
 125   13:50  676.0    56   70.1    14    247.8    21.5    999.0   0.00  
 125   14:00  679.0    56   71.8    14    247.0    20.3    999.0   0.00  
 125   14:10  738.0    57   69.7    14    246.0    22.1    999.0   0.00  
 125   14:20  649.0    57   70.0    14    259.2    20.9    999.0   0.00  
 125   14:30  552.0    57   69.1    12    270.7    19.7    999.0   0.00  
 125   14:40  626.0    58   65.8    11    284.7    21.5    999.0   0.00  
 125   14:50  613.0    58   67.8    12    292.6    17.9    999.0   0.00  
 125   15:00  601.0    57   69.0    13    288.0    20.9    999.0   0.00  
 125   15:10  580.0    58   68.3    12    298.5    18.5    999.0   0.00  
 125   15:20  550.0    57   69.8    13    309.7    19.7    999.0   0.00  
 125   15:30  488.0    57   70.8    14    307.6    23.9    999.0   0.00  
 125   15:40  424.0    57   71.3    14    305.5    20.9    999.0   0.00  
 125   15:50  302.0    55   75.8    14    307.4    21.5    999.0   0.00  
 125   16:00  340.0    56   74.1    13    309.0    19.1    999.0   0.00  
 125   16:10  357.0    56   74.5    13    317.1    20.3    999.0   0.00  
 125   16:20  359.0    57   70.9    12    303.9    19.1    999.0   0.00  
 125   16:30  328.0    56   73.4    12    305.4    17.9    999.0   0.00  
 125   16:40  164.0    55   76.7    11    299.1    16.7    999.0   0.00  
 125   16:50  115.0    55   79.3     9    298.3    16.1    999.0   0.00  
 125   17:00  156.0    55   80.8    10    292.6    15.5    999.0   0.00  
 125   17:10  228.0    56   77.9     9    300.6    15.5    999.0   0.00  
 125   17:20  204.0    57   75.2    10    300.9    16.7    999.0   0.00  
 125   17:30   93.0    55   79.2    13    306.8    17.9    999.0   0.00  
 125   17:40   94.0    54   81.2    12    312.5    17.3    999.0   0.00  
 125   17:50   75.0    54   82.3    12    310.7    17.3    999.0   0.00  
 125   18:00   52.0    54   82.4    11    320.3    16.7    999.0   0.00  
 125   18:10   33.0    53   85.0    11    320.6    14.9    999.0   0.00  
 125   18:20   19.0    53   86.4    11    318.1    16.7    999.0   0.00  
 125   18:30   12.0    53   87.4    10    329.3    15.5    999.0   0.00  
 125   18:40    6.0    53   88.2    12    335.9    16.7    999.0   0.00  
 125   18:50    1.0    52   93.1    11    337.5    15.5    999.0   0.00  
 125   19:00    0.0    52   99.9    12    343.7    16.7    999.0   0.00  
 125   19:10    0.0    52   99.9    11    340.0    14.9    999.0   0.00  
 125   19:20    0.0    52   99.9    10    339.0    14.3    999.0   0.00  
 125   19:30    0.0    52   99.9    10    341.9    13.1    999.0   0.00  
 125   19:40    0.0    52   99.9    10    345.3    13.1    999.0   0.00  
 125   19:50    0.0    52   99.9     9    339.6    11.3    999.0   0.00  
 125   20:00    0.0    52   99.9     8    343.5    10.8    999.0   0.00  
 125   20:10    0.0    52   99.9     7    338.0    10.2    999.0   0.00  
 125   20:20    0.0    52   99.9     6    331.9     8.4    999.0   0.00  
 125   20:30    0.0    52   99.9     6    315.9     8.4    999.0   0.00  
 125   20:40    0.0    52   99.9     7    297.5    10.8    999.0   0.00  
 125   20:50    0.0    52   99.9     7    297.8    10.2    999.0   0.00  
 125   21:00    0.0    52   99.9     6    307.8    10.2    999.0   0.00  
 125   21:10    0.0    52   99.9     7    312.7    10.8    999.0   0.00  
 125   21:20    0.0    52   99.9     7    304.6    10.2    999.0   0.00  
 125   21:30    0.0    52   99.9     6    313.5     9.6    999.0   0.00  
 125   21:40    0.0    52   99.9     6    319.2     9.6    999.0   0.00  
 125   21:50    0.0    52   99.9     6    318.7     9.6    999.0   0.00  
 125   22:00    0.0    52   99.9     6    314.9     8.4    999.0   0.00  
 125   22:10    0.0    52   99.9     6    318.3     9.0    999.0   0.00  
 125   22:20    0.0    52   99.9     7    317.3     9.0    999.0   0.00  
 125   22:30    0.0    52   99.9     7    330.0    10.2    999.0   0.00  
 125   22:40    0.0    52   99.9     8    331.8    10.2    999.0   0.00  
 125   22:50    0.0    52   99.9     8    333.8    10.8    999.0   0.00  
 125   23:00    0.0    52   99.9     8    344.0    10.2    999.0   0.00  
 125   23:10    0.0    52   99.9     8    337.9    10.8    999.0   0.00  
 125   23:20    0.0    52   99.9     8    337.0    11.3    999.0   0.00  
 125   23:30    0.0    52   99.9     7    336.1     8.4    999.0   0.00  
 125   23:40    0.0    52   99.9     7    330.1     9.0    999.0   0.00  
 125   23:50    0.0    51   99.9     6    329.1     8.4    999.0   0.00  
 126    0:00    0.0    51   99.9     5    313.1     7.2    999.0   0.00  
 126    0:10    0.0    51   99.9     7    325.7     9.6    999.0   0.00  
 126    0:20    0.0    51   99.9     8    336.8    10.8    999.0   0.00  
 126    0:30    0.0    51   99.9     8    351.0     9.6    999.0   0.00  
 126    0:40    0.0    51   99.9     6      3.3     8.4    999.0   0.00  
 126    0:50    0.0    51   99.9     6     12.3     7.8    999.0   0.00  
 126    1:00    0.0    51   99.9     6     25.4     6.6    999.0   0.00  
 126    1:10    0.0    51   99.9     5     27.0     6.6    999.0   0.00  
 126    1:20    0.0    51   99.9     4     10.5     4.8    999.0   0.00  
 126    1:30    0.0    51   99.9     2    349.2     3.0    999.0   0.00  
 126    1:40    0.0    52   99.9     2      3.7     3.0    999.0   0.00  
 126    1:50    0.0    52   99.9     2      9.7     3.0    999.0   0.00  
 126    2:00    0.0    52   99.9     4     25.0     4.2    999.0   0.00  

Return to Cactus Peak graphs page.


Western Regional Climate Center,wrcc@dri.edu